sensor_id;sensor_type;location;lat;lon;timestamp;pressure;altitude;pressure_sealevel;temperature;humidity
42945;BME280;28584;42.636;23.294;2023-02-20T00:02:22;160830.09;;;8.55;100.00
42945;BME280;28584;42.636;23.294;2023-02-20T00:04:48;160811.41;;;8.48;100.00
42945;BME280;28584;42.636;23.294;2023-02-20T00:07:13;160808.72;;;8.47;100.00
42945;BME280;28584;42.636;23.294;2023-02-20T00:09:38;160787.38;;;8.39;100.00
42945;BME280;28584;42.636;23.294;2023-02-20T00:12:04;160763.38;;;8.30;100.00
42945;BME280;28584;42.636;23.294;2023-02-20T00:14:29;160750.06;;;8.25;100.00
42945;BME280;28584;42.636;23.294;2023-02-20T00:16:55;160724.69;;;8.15;100.00
42945;BME280;28584;42.636;23.294;2023-02-20T00:19:20;160720.66;;;8.14;100.00
42945;BME280;28584;42.636;23.294;2023-02-20T00:21:47;160718.03;;;8.13;100.00
42945;BME280;28584;42.636;23.294;2023-02-20T00:24:14;160728.69;;;8.17;100.00
42945;BME280;28584;42.636;23.294;2023-02-20T00:26:48;160711.31;;;8.10;100.00
42945;BME280;28584;42.636;23.294;2023-02-20T00:29:15;160732.69;;;8.18;100.00
42945;BME280;28584;42.636;23.294;2023-02-20T00:31:41;160728.69;;;8.17;100.00
42945;BME280;28584;42.636;23.294;2023-02-20T00:34:06;160737.97;;;8.20;100.00
42945;BME280;28584;42.636;23.294;2023-02-20T00:36:32;160732.69;;;8.18;100.00
42945;BME280;28584;42.636;23.294;2023-02-20T00:38:57;160728.69;;;8.17;100.00
42945;BME280;28584;42.636;23.294;2023-02-20T00:41:23;160706.00;;;8.08;100.00
42945;BME280;28584;42.636;23.294;2023-02-20T00:43:48;160704.66;;;8.08;100.00
42945;BME280;28584;42.636;23.294;2023-02-20T00:46:13;160704.66;;;8.08;100.00
42945;BME280;28584;42.636;23.294;2023-02-20T00:48:39;160727.31;;;8.16;100.00
42945;BME280;28584;42.636;23.294;2023-02-20T00:51:04;160795.41;;;8.42;89.69
42945;BME280;28584;42.636;23.294;2023-02-20T00:53:30;160840.75;;;8.59;78.09
42945;BME280;28584;42.636;23.294;2023-02-20T00:55:55;160867.44;;;8.69;75.23
42945;BME280;28584;42.636;23.294;2023-02-20T00:58:21;160875.44;;;8.72;77.12
42945;BME280;28584;42.636;23.294;2023-02-20T01:00:46;160851.41;;;8.63;84.83
42945;BME280;28584;42.636;23.294;2023-02-20T01:03:11;160803.41;;;8.45;93.38
42945;BME280;28584;42.636;23.294;2023-02-20T01:05:38;160786.03;;;8.38;100.00
42945;BME280;28584;42.636;23.294;2023-02-20T01:08:04;160744.69;;;8.23;100.00
42945;BME280;28584;42.636;23.294;2023-02-20T01:10:29;160715.31;;;8.12;100.00
42945;BME280;28584;42.636;23.294;2023-02-20T01:12:54;160692.66;;;8.03;100.00
42945;BME280;28584;42.636;23.294;2023-02-20T01:15:20;160665.97;;;7.93;100.00
42945;BME280;28584;42.636;23.294;2023-02-20T01:17:45;160656.66;;;7.90;100.00
42945;BME280;28584;42.636;23.294;2023-02-20T01:20:11;160650.03;;;7.87;100.00
42945;BME280;28584;42.636;23.294;2023-02-20T01:22:36;160622.00;;;7.77;100.00
42945;BME280;28584;42.636;23.294;2023-02-20T01:25:02;160598.03;;;7.68;100.00
42945;BME280;28584;42.636;23.294;2023-02-20T01:27:28;160602.03;;;7.69;100.00
42945;BME280;28584;42.636;23.294;2023-02-20T01:29:53;160614.00;;;7.74;100.00
42945;BME280;28584;42.636;23.294;2023-02-20T01:32:19;160610.00;;;7.72;100.00
42945;BME280;28584;42.636;23.294;2023-02-20T01:34:44;160643.31;;;7.85;100.00
42945;BME280;28584;42.636;23.294;2023-02-20T01:37:13;160665.97;;;7.93;100.00
42945;BME280;28584;42.636;23.294;2023-02-20T01:39:39;160678.00;;;7.98;100.00
42945;BME280;28584;42.636;23.294;2023-02-20T01:42:07;160644.66;;;7.85;100.00
42945;BME280;28584;42.636;23.294;2023-02-20T01:44:36;160608.69;;;7.72;100.00
42945;BME280;28584;42.636;23.294;2023-02-20T01:47:07;160604.69;;;7.70;100.00
42945;BME280;28584;42.636;23.294;2023-02-20T01:49:40;160619.34;;;7.76;100.00
42945;BME280;28584;42.636;23.294;2023-02-20T01:52:25;160614.00;;;7.74;100.00
42945;BME280;28584;42.636;23.294;2023-02-20T01:54:58;160599.34;;;7.68;100.00
42945;BME280;28584;42.636;23.294;2023-02-20T01:57:27;160584.69;;;7.63;100.00
42945;BME280;28584;42.636;23.294;2023-02-20T01:59:58;160575.38;;;7.59;100.00
42945;BME280;28584;42.636;23.294;2023-02-20T02:02:27;160574.03;;;7.59;100.00
42945;BME280;28584;42.636;23.294;2023-02-20T02:04:54;160584.69;;;7.63;100.00
42945;BME280;28584;42.636;23.294;2023-02-20T02:07:20;160574.03;;;7.59;100.00
42945;BME280;28584;42.636;23.294;2023-02-20T02:09:49;160558.03;;;7.53;100.00
42945;BME280;28584;42.636;23.294;2023-02-20T02:12:15;160546.00;;;7.48;100.00
42945;BME280;28584;42.636;23.294;2023-02-20T02:14:41;160523.34;;;7.40;100.00
42945;BME280;28584;42.636;23.294;2023-02-20T02:20:43;160503.41;;;7.32;100.00
42945;BME280;28584;42.636;23.294;2023-02-20T02:25:54;160486.03;;;7.26;100.00
42945;BME280;28584;42.636;23.294;2023-02-20T02:28:45;160470.09;;;7.20;100.00
42945;BME280;28584;42.636;23.294;2023-02-20T02:37:18;160420.78;;;7.01;100.00
42945;BME280;28584;42.636;23.294;2023-02-20T02:45:48;160420.78;;;7.01;100.00
42945;BME280;28584;42.636;23.294;2023-02-20T02:50:37;160406.16;;;6.96;100.00
42945;BME280;28584;42.636;23.294;2023-02-20T02:53:06;160392.78;;;6.91;100.00
42945;BME280;28584;42.636;23.294;2023-02-20T02:55:32;160376.84;;;6.85;100.00
42945;BME280;28584;42.636;23.294;2023-02-20T02:57:58;160368.84;;;6.82;100.00
42945;BME280;28584;42.636;23.294;2023-02-20T03:05:41;160372.84;;;6.83;100.00
42945;BME280;28584;42.636;23.294;2023-02-20T03:10:47;160366.16;;;6.81;100.00
42945;BME280;28584;42.636;23.294;2023-02-20T03:13:12;160342.19;;;6.72;100.00
42945;BME280;28584;42.636;23.294;2023-02-20T03:15:44;160335.56;;;6.69;100.00
42945;BME280;28584;42.636;23.294;2023-02-20T03:18:30;160328.84;;;6.67;100.00
42945;BME280;28584;42.636;23.294;2023-02-20T03:21:02;160310.22;;;6.60;100.00
42945;BME280;28584;42.636;23.294;2023-02-20T03:23:35;160294.28;;;6.54;100.00
42945;BME280;28584;42.636;23.294;2023-02-20T03:26:09;160312.91;;;6.61;100.00
42945;BME280;28584;42.636;23.294;2023-02-20T03:28:45;160288.94;;;6.52;100.00
42945;BME280;28584;42.636;23.294;2023-02-20T03:31:18;160275.63;;;6.47;100.00
42945;BME280;28584;42.636;23.294;2023-02-20T03:33:59;160275.63;;;6.47;100.00
42945;BME280;28584;42.636;23.294;2023-02-20T03:36:52;160300.91;;;6.56;100.00
42945;BME280;28584;42.636;23.294;2023-02-20T03:39:44;160276.94;;;6.47;100.00
42945;BME280;28584;42.636;23.294;2023-02-20T03:42:33;160268.94;;;6.44;100.00
42945;BME280;28584;42.636;23.294;2023-02-20T03:45:19;160276.94;;;6.47;100.00
42945;BME280;28584;42.636;23.294;2023-02-20T03:47:50;160254.28;;;6.39;100.00
42945;BME280;28584;42.636;23.294;2023-02-20T03:50:17;160242.28;;;6.34;100.00
42945;BME280;28584;42.636;23.294;2023-02-20T03:53:02;160219.72;;;6.26;100.00
42945;BME280;28584;42.636;23.294;2023-02-20T03:55:28;160205.03;;;6.20;100.00
42945;BME280;28584;42.636;23.294;2023-02-20T03:57:57;160227.66;;;6.29;100.00
42945;BME280;28584;42.636;23.294;2023-02-20T04:00:29;160259.63;;;6.41;100.00
42945;BME280;28584;42.636;23.294;2023-02-20T04:02:59;160238.34;;;6.33;100.00
42945;BME280;28584;42.636;23.294;2023-02-20T04:05:31;160253.00;;;6.38;100.00
42945;BME280;28584;42.636;23.294;2023-02-20T04:08:06;160272.94;;;6.46;100.00
42945;BME280;28584;42.636;23.294;2023-02-20T04:10:37;160290.28;;;6.52;100.00
42945;BME280;28584;42.636;23.294;2023-02-20T04:13:05;160296.91;;;6.55;100.00
42945;BME280;28584;42.636;23.294;2023-02-20T04:15:31;160315.56;;;6.62;100.00
42945;BME280;28584;42.636;23.294;2023-02-20T04:18:07;160336.84;;;6.70;100.00
42945;BME280;28584;42.636;23.294;2023-02-20T04:20:34;160335.56;;;6.69;100.00
42945;BME280;28584;42.636;23.294;2023-02-20T04:23:04;160322.22;;;6.64;100.00
42945;BME280;28584;42.636;23.294;2023-02-20T04:25:41;160315.56;;;6.62;100.00
42945;BME280;28584;42.636;23.294;2023-02-20T04:28:10;160311.56;;;6.60;100.00
42945;BME280;28584;42.636;23.294;2023-02-20T04:30:36;160302.22;;;6.57;100.00
42945;BME280;28584;42.636;23.294;2023-02-20T04:33:02;160284.91;;;6.50;100.00
42945;BME280;28584;42.636;23.294;2023-02-20T04:35:27;160274.28;;;6.46;100.00
42945;BME280;28584;42.636;23.294;2023-02-20T04:37:52;160266.28;;;6.43;100.00
42945;BME280;28584;42.636;23.294;2023-02-20T04:40:20;160278.28;;;6.48;100.00
42945;BME280;28584;42.636;23.294;2023-02-20T04:42:46;160257.00;;;6.40;100.00
42945;BME280;28584;42.636;23.294;2023-02-20T04:45:11;160254.28;;;6.39;100.00
42945;BME280;28584;42.636;23.294;2023-02-20T04:47:36;160250.28;;;6.37;100.00
42945;BME280;28584;42.636;23.294;2023-02-20T04:50:03;160241.00;;;6.34;100.00
42945;BME280;28584;42.636;23.294;2023-02-20T04:52:28;160222.34;;;6.27;100.00
42945;BME280;28584;42.636;23.294;2023-02-20T04:54:54;160222.34;;;6.27;100.00
42945;BME280;28584;42.636;23.294;2023-02-20T04:57:19;160230.34;;;6.30;100.00
42945;BME280;28584;42.636;23.294;2023-02-20T04:59:44;160215.72;;;6.24;100.00
42945;BME280;28584;42.636;23.294;2023-02-20T05:02:10;160201.03;;;6.19;100.00
42945;BME280;28584;42.636;23.294;2023-02-20T05:04:36;160173.09;;;6.08;100.00
42945;BME280;28584;42.636;23.294;2023-02-20T05:07:01;160166.44;;;6.06;100.00
42945;BME280;28584;42.636;23.294;2023-02-20T05:09:27;160141.13;;;5.96;100.00
42945;BME280;28584;42.636;23.294;2023-02-20T05:11:52;160135.81;;;5.94;100.00
42945;BME280;28584;42.636;23.294;2023-02-20T05:14:19;160135.81;;;5.94;100.00
42945;BME280;28584;42.636;23.294;2023-02-20T05:16:44;160105.22;;;5.83;100.00
42945;BME280;28584;42.636;23.294;2023-02-20T05:19:10;160099.84;;;5.81;100.00
42945;BME280;28584;42.636;23.294;2023-02-20T05:21:36;160082.53;;;5.74;100.00
42945;BME280;28584;42.636;23.294;2023-02-20T05:24:21;160086.53;;;5.75;100.00
42945;BME280;28584;42.636;23.294;2023-02-20T05:26:47;160097.16;;;5.79;100.00
42945;BME280;28584;42.636;23.294;2023-02-20T05:29:12;160121.19;;;5.89;100.00
42945;BME280;28584;42.636;23.294;2023-02-20T05:31:39;160161.09;;;6.04;100.00
42945;BME280;28584;42.636;23.294;2023-02-20T05:34:04;160170.44;;;6.07;100.00
42945;BME280;28584;42.636;23.294;2023-02-20T05:36:30;160177.09;;;6.10;100.00
42945;BME280;28584;42.636;23.294;2023-02-20T05:38:55;160185.09;;;6.13;100.00
42945;BME280;28584;42.636;23.294;2023-02-20T05:41:21;160193.09;;;6.16;100.00
42945;BME280;28584;42.636;23.294;2023-02-20T05:43:46;160193.09;;;6.16;100.00
42945;BME280;28584;42.636;23.294;2023-02-20T05:46:13;160186.38;;;6.13;100.00
42945;BME280;28584;42.636;23.294;2023-02-20T05:48:38;160219.72;;;6.26;100.00
42945;BME280;28584;42.636;23.294;2023-02-20T05:51:04;160280.94;;;6.49;100.00
42945;BME280;28584;42.636;23.294;2023-02-20T05:53:30;160338.22;;;6.70;100.00
42945;BME280;28584;42.636;23.294;2023-02-20T05:55:56;160411.44;;;6.98;93.12
42945;BME280;28584;42.636;23.294;2023-02-20T05:58:22;160476.75;;;7.22;86.24
42945;BME280;28584;42.636;23.294;2023-02-20T06:00:48;160515.41;;;7.37;78.04
42945;BME280;28584;42.636;23.294;2023-02-20T06:03:14;160546.00;;;7.48;73.66
42945;BME280;28584;42.636;23.294;2023-02-20T06:05:39;160551.38;;;7.50;70.87
42945;BME280;28584;42.636;23.294;2023-02-20T06:08:05;160555.38;;;7.52;71.53
42945;BME280;28584;42.636;23.294;2023-02-20T06:10:31;160531.38;;;7.43;71.27
42945;BME280;28584;42.636;23.294;2023-02-20T06:12:56;160524.72;;;7.40;70.04
42945;BME280;28584;42.636;23.294;2023-02-20T06:15:21;160515.41;;;7.37;69.00
42945;BME280;28584;42.636;23.294;2023-02-20T06:17:47;160551.38;;;7.50;70.61
42945;BME280;28584;42.636;23.294;2023-02-20T06:20:12;160550.00;;;7.50;71.06
42945;BME280;28584;42.636;23.294;2023-02-20T06:22:38;160591.34;;;7.65;69.76
42945;BME280;28584;42.636;23.294;2023-02-20T06:25:03;160667.31;;;7.94;68.95
42945;BME280;28584;42.636;23.294;2023-02-20T06:27:29;160718.03;;;8.13;68.13
42945;BME280;28584;42.636;23.294;2023-02-20T06:29:54;160786.03;;;8.38;66.15
42945;BME280;28584;42.636;23.294;2023-02-20T06:32:19;160804.72;;;8.45;63.74
42945;BME280;28584;42.636;23.294;2023-02-20T06:34:45;160864.72;;;8.68;63.20
42945;BME280;28584;42.636;23.294;2023-02-20T06:37:11;160822.09;;;8.52;62.52
42945;BME280;28584;42.636;23.294;2023-02-20T06:39:37;160912.81;;;8.86;61.69
42945;BME280;28584;42.636;23.294;2023-02-20T06:42:04;160899.44;;;8.81;60.30
42945;BME280;28584;42.636;23.294;2023-02-20T06:44:30;160764.72;;;8.30;61.32
42945;BME280;28584;42.636;23.294;2023-02-20T06:46:57;160754.06;;;8.26;62.44
42945;BME280;28584;42.636;23.294;2023-02-20T06:49:23;160683.34;;;8.00;63.34
42945;BME280;28584;42.636;23.294;2023-02-20T06:51:51;160624.66;;;7.78;64.23
42945;BME280;28584;42.636;23.294;2023-02-20T06:54:17;160591.34;;;7.65;64.81
42945;BME280;28584;42.636;23.294;2023-02-20T06:56:44;160567.38;;;7.56;65.49
42945;BME280;28584;42.636;23.294;2023-02-20T06:59:09;160584.69;;;7.63;66.62
42945;BME280;28584;42.636;23.294;2023-02-20T07:01:41;160616.69;;;7.75;66.22
42945;BME280;28584;42.636;23.294;2023-02-20T07:04:16;160662.03;;;7.92;64.20
42945;BME280;28584;42.636;23.294;2023-02-20T07:06:42;160744.69;;;8.23;63.71
42945;BME280;28584;42.636;23.294;2023-02-20T07:09:08;160795.41;;;8.42;62.08
42945;BME280;28584;42.636;23.294;2023-02-20T07:11:33;160846.06;;;8.61;60.63
42945;BME280;28584;42.636;23.294;2023-02-20T07:13:59;160826.09;;;8.54;59.83
42945;BME280;28584;42.636;23.294;2023-02-20T07:16:24;160815.44;;;8.50;59.59
42945;BME280;28584;42.636;23.294;2023-02-20T07:18:49;160827.38;;;8.54;59.65
42945;BME280;28584;42.636;23.294;2023-02-20T07:21:15;160888.75;;;8.77;58.89
42945;BME280;28584;42.636;23.294;2023-02-20T07:23:40;160908.78;;;8.85;58.10
42945;BME280;28584;42.636;23.294;2023-02-20T07:26:06;160858.06;;;8.66;57.14
42945;BME280;28584;42.636;23.294;2023-02-20T07:28:33;160891.41;;;8.78;57.00
42945;BME280;28584;42.636;23.294;2023-02-20T07:30:59;160784.75;;;8.38;57.08
42945;BME280;28584;42.636;23.294;2023-02-20T07:33:25;160711.31;;;8.10;58.61
42945;BME280;28584;42.636;23.294;2023-02-20T07:35:50;160728.69;;;8.17;57.93
42945;BME280;28584;42.636;23.294;2023-02-20T07:38:16;160744.69;;;8.23;56.91
42945;BME280;28584;42.636;23.294;2023-02-20T07:40:41;160779.38;;;8.36;55.82
42945;BME280;28584;42.636;23.294;2023-02-20T07:43:06;160791.41;;;8.40;54.95
42945;BME280;28584;42.636;23.294;2023-02-20T07:45:32;160763.38;;;8.30;53.99
42945;BME280;28584;42.636;23.294;2023-02-20T07:47:57;160787.38;;;8.39;53.51
42945;BME280;28584;42.636;23.294;2023-02-20T07:50:22;160852.75;;;8.64;52.51
42945;BME280;28584;42.636;23.294;2023-02-20T07:52:48;160771.38;;;8.33;53.03
42945;BME280;28584;42.636;23.294;2023-02-20T07:55:15;160780.72;;;8.36;53.63
42945;BME280;28584;42.636;23.294;2023-02-20T07:57:41;160859.41;;;8.66;53.71
42945;BME280;28584;42.636;23.294;2023-02-20T08:00:14;160912.81;;;8.86;52.91
42945;BME280;28584;42.636;23.294;2023-02-20T08:02:41;160907.44;;;8.84;51.84
42945;BME280;28584;42.636;23.294;2023-02-20T08:05:06;160848.75;;;8.62;52.18
42945;BME280;28584;42.636;23.294;2023-02-20T08:07:32;160878.09;;;8.73;52.33
42945;BME280;28584;42.636;23.294;2023-02-20T08:09:57;160952.81;;;9.01;51.42
42945;BME280;28584;42.636;23.294;2023-02-20T08:12:22;160891.41;;;8.78;51.36
42945;BME280;28584;42.636;23.294;2023-02-20T08:14:51;160962.16;;;9.05;51.88
42945;BME280;28584;42.636;23.294;2023-02-20T08:17:18;160930.13;;;8.93;52.18
42945;BME280;28584;42.636;23.294;2023-02-20T08:19:43;160923.47;;;8.90;52.74
42945;BME280;28584;42.636;23.294;2023-02-20T08:22:09;160934.13;;;8.94;53.20
42945;BME280;28584;42.636;23.294;2023-02-20T08:24:34;160936.78;;;8.95;53.21
42945;BME280;28584;42.636;23.294;2023-02-20T08:27:00;160883.41;;;8.75;53.39
42945;BME280;28584;42.636;23.294;2023-02-20T08:29:25;160902.13;;;8.82;53.64
42945;BME280;28584;42.636;23.294;2023-02-20T08:31:51;160982.16;;;9.12;53.04
42945;BME280;28584;42.636;23.294;2023-02-20T08:34:16;160960.81;;;9.04;52.98
42945;BME280;28584;42.636;23.294;2023-02-20T08:36:41;160976.84;;;9.10;53.23
42945;BME280;28584;42.636;23.294;2023-02-20T08:39:07;160978.16;;;9.11;52.29
42945;BME280;28584;42.636;23.294;2023-02-20T08:41:32;160939.50;;;8.96;52.14
42945;BME280;28584;42.636;23.294;2023-02-20T08:43:58;161014.22;;;9.24;52.24
42945;BME280;28584;42.636;23.294;2023-02-20T08:46:23;160998.19;;;9.18;51.98
42945;BME280;28584;42.636;23.294;2023-02-20T08:48:49;161003.53;;;9.20;51.72
42945;BME280;28584;42.636;23.294;2023-02-20T08:51:18;161000.84;;;9.19;51.38
42945;BME280;28584;42.636;23.294;2023-02-20T08:53:44;160924.75;;;8.91;51.87
42945;BME280;28584;42.636;23.294;2023-02-20T08:56:10;160955.47;;;9.02;51.21
42945;BME280;28584;42.636;23.294;2023-02-20T08:58:37;160986.16;;;9.14;51.16
42945;BME280;28584;42.636;23.294;2023-02-20T09:01:02;161004.84;;;9.21;51.48
42945;BME280;28584;42.636;23.294;2023-02-20T09:03:28;160992.81;;;9.16;50.99
42945;BME280;28584;42.636;23.294;2023-02-20T09:05:53;160939.50;;;8.96;51.68
42945;BME280;28584;42.636;23.294;2023-02-20T09:08:19;160904.78;;;8.83;52.29
42945;BME280;28584;42.636;23.294;2023-02-20T09:10:44;160940.78;;;8.97;52.71
42945;BME280;28584;42.636;23.294;2023-02-20T09:13:10;160896.78;;;8.80;52.87
42945;BME280;28584;42.636;23.294;2023-02-20T09:15:35;160908.78;;;8.85;53.53
42945;BME280;28584;42.636;23.294;2023-02-20T09:18:05;160939.50;;;8.96;53.81
42945;BME280;28584;42.636;23.294;2023-02-20T09:20:31;160868.72;;;8.70;53.71
42945;BME280;28584;42.636;23.294;2023-02-20T09:22:58;160828.75;;;8.55;54.48
42945;BME280;28584;42.636;23.294;2023-02-20T09:25:24;160798.06;;;8.43;54.83
42945;BME280;28584;42.636;23.294;2023-02-20T09:27:50;160790.03;;;8.40;55.41
42945;BME280;28584;42.636;23.294;2023-02-20T09:30:17;160854.06;;;8.64;55.67
42945;BME280;28584;42.636;23.294;2023-02-20T09:32:44;160934.13;;;8.94;55.56
42945;BME280;28584;42.636;23.294;2023-02-20T09:35:19;160916.81;;;8.88;55.12
42945;BME280;28584;42.636;23.294;2023-02-20T09:37:45;160852.75;;;8.64;55.19
42945;BME280;28584;42.636;23.294;2023-02-20T09:40:12;160870.09;;;8.70;55.97
42945;BME280;28584;42.636;23.294;2023-02-20T09:43:03;160843.41;;;8.60;55.63
42945;BME280;28584;42.636;23.294;2023-02-20T09:45:40;160846.06;;;8.61;55.71
42945;BME280;28584;42.636;23.294;2023-02-20T09:51:05;160888.75;;;8.77;55.27
42945;BME280;28584;42.636;23.294;2023-02-20T09:56:17;160912.81;;;8.86;54.43
42945;BME280;28584;42.636;23.294;2023-02-20T10:01:20;160814.06;;;8.49;53.78
42945;BME280;28584;42.636;23.294;2023-02-20T10:03:56;160818.06;;;8.51;53.65
42945;BME280;28584;42.636;23.294;2023-02-20T10:06:27;160830.09;;;8.55;53.23
42945;BME280;28584;42.636;23.294;2023-02-20T10:08:54;160850.06;;;8.63;51.53
42945;BME280;28584;42.636;23.294;2023-02-20T10:11:47;160812.72;;;8.48;49.96
42945;BME280;28584;42.636;23.294;2023-02-20T10:17:17;160908.78;;;8.85;50.29
42945;BME280;28584;42.636;23.294;2023-02-20T10:25:40;160902.13;;;8.82;48.90
42945;BME280;28584;42.636;23.294;2023-02-20T10:28:17;160880.75;;;8.74;48.37
42945;BME280;28584;42.636;23.294;2023-02-20T10:35:44;160872.75;;;8.71;48.10
42945;BME280;28584;42.636;23.294;2023-02-20T10:38:17;160895.44;;;8.80;48.31
42945;BME280;28584;42.636;23.294;2023-02-20T10:48:37;160962.16;;;9.05;47.41
42945;BME280;28584;42.636;23.294;2023-02-20T10:51:19;160955.47;;;9.02;47.28
42945;BME280;28584;42.636;23.294;2023-02-20T10:56:31;160976.84;;;9.10;47.88
42945;BME280;28584;42.636;23.294;2023-02-20T11:01:25;160978.16;;;9.11;47.11
42945;BME280;28584;42.636;23.294;2023-02-20T11:04:01;161040.91;;;9.34;48.12
42945;BME280;28584;42.636;23.294;2023-02-20T11:06:56;161096.97;;;9.55;48.74
42945;BME280;28584;42.636;23.294;2023-02-20T11:09:20;161131.63;;;9.68;47.23
42945;BME280;28584;42.636;23.294;2023-02-20T11:11:47;161162.34;;;9.80;48.46
42945;BME280;28584;42.636;23.294;2023-02-20T11:14:29;161068.91;;;9.45;48.94
42945;BME280;28584;42.636;23.294;2023-02-20T11:17:00;161075.56;;;9.47;49.29
42945;BME280;28584;42.636;23.294;2023-02-20T11:19:44;161096.97;;;9.55;49.71
42945;BME280;28584;42.636;23.294;2023-02-20T11:22:09;161122.31;;;9.65;49.10
42945;BME280;28584;42.636;23.294;2023-02-20T11:24:37;161068.91;;;9.45;48.79
42945;BME280;28584;42.636;23.294;2023-02-20T11:29:41;161070.25;;;9.45;49.44
42945;BME280;28584;42.636;23.294;2023-02-20T11:32:27;161087.59;;;9.52;49.24
42945;BME280;28584;42.636;23.294;2023-02-20T11:35:23;161087.59;;;9.52;49.76
42945;BME280;28584;42.636;23.294;2023-02-20T11:40:39;161056.88;;;9.40;49.64
42945;BME280;28584;42.636;23.294;2023-02-20T11:43:10;161047.56;;;9.37;49.97
42945;BME280;28584;42.636;23.294;2023-02-20T11:45:40;161072.91;;;9.46;49.55
42945;BME280;28584;42.636;23.294;2023-02-20T11:48:10;161102.28;;;9.57;49.05
42945;BME280;28584;42.636;23.294;2023-02-20T11:50:54;161110.28;;;9.60;49.05
42945;BME280;28584;42.636;23.294;2023-02-20T11:53:30;161102.28;;;9.57;48.82
42945;BME280;28584;42.636;23.294;2023-02-20T11:56:11;161122.31;;;9.65;49.21
42945;BME280;28584;42.636;23.294;2023-02-20T11:58:38;161086.25;;;9.51;49.25
42945;BME280;28584;42.636;23.294;2023-02-20T12:01:04;161130.34;;;9.68;49.34
42945;BME280;28584;42.636;23.294;2023-02-20T12:03:32;161174.38;;;9.84;48.48
42945;BME280;28584;42.636;23.294;2023-02-20T12:06:44;161145.00;;;9.73;48.81
42945;BME280;28584;42.636;23.294;2023-02-20T12:08:53;161215.78;;;10.00;48.87
42945;BME280;28584;42.636;23.294;2023-02-20T12:11:23;161185.06;;;9.88;48.77
42945;BME280;28584;42.636;23.294;2023-02-20T12:13:51;161225.09;;;10.03;49.17
42945;BME280;28584;42.636;23.294;2023-02-20T12:22:08;161210.41;;;9.98;47.91
42945;BME280;28584;42.636;23.294;2023-02-20T12:30:26;161163.69;;;9.80;48.71
42945;BME280;28584;42.636;23.294;2023-02-20T12:38:56;161111.66;;;9.61;48.71
42945;BME280;28584;42.636;23.294;2023-02-20T12:41:30;161137.00;;;9.70;49.11
42945;BME280;28584;42.636;23.294;2023-02-20T12:46:48;161133.00;;;9.69;48.53
42945;BME280;28584;42.636;23.294;2023-02-20T12:52:56;161122.31;;;9.65;49.31
42945;BME280;28584;42.636;23.294;2023-02-20T12:55:31;161126.31;;;9.66;49.59
42945;BME280;28584;42.636;23.294;2023-02-20T12:58:58;161137.00;;;9.70;49.15
42945;BME280;28584;42.636;23.294;2023-02-20T13:01:25;161080.94;;;9.49;49.72
42945;BME280;28584;42.636;23.294;2023-02-20T13:06:42;161083.59;;;9.50;49.66
42945;BME280;28584;42.636;23.294;2023-02-20T13:09:28;161104.94;;;9.58;49.47
42945;BME280;28584;42.636;23.294;2023-02-20T13:12:03;161087.59;;;9.52;49.61
42945;BME280;28584;42.636;23.294;2023-02-20T13:17:46;161094.25;;;9.54;50.07
42945;BME280;28584;42.636;23.294;2023-02-20T13:20:24;161094.25;;;9.54;50.17
42945;BME280;28584;42.636;23.294;2023-02-20T13:25:48;161035.56;;;9.32;51.06
42945;BME280;28584;42.636;23.294;2023-02-20T13:33:32;161051.56;;;9.38;51.73
42945;BME280;28584;42.636;23.294;2023-02-20T13:36:00;161014.22;;;9.24;51.72
42945;BME280;28584;42.636;23.294;2023-02-20T13:38:26;160982.16;;;9.12;51.90
42945;BME280;28584;42.636;23.294;2023-02-20T13:46:08;160934.13;;;8.94;52.50
42945;BME280;28584;42.636;23.294;2023-02-20T13:53:52;160928.78;;;8.92;52.79
42945;BME280;28584;42.636;23.294;2023-02-20T13:56:25;160907.44;;;8.84;53.16
42945;BME280;28584;42.636;23.294;2023-02-20T13:58:53;160880.75;;;8.74;53.48
42945;BME280;28584;42.636;23.294;2023-02-20T14:01:21;160890.13;;;8.78;53.67
42945;BME280;28584;42.636;23.294;2023-02-20T14:04:01;160899.44;;;8.81;53.72
42945;BME280;28584;42.636;23.294;2023-02-20T14:06:27;160902.13;;;8.82;53.69
42945;BME280;28584;42.636;23.294;2023-02-20T14:09:07;160915.44;;;8.87;53.92
42945;BME280;28584;42.636;23.294;2023-02-20T14:11:36;160960.81;;;9.04;53.61
42945;BME280;28584;42.636;23.294;2023-02-20T14:14:07;160960.81;;;9.04;53.20
42945;BME280;28584;42.636;23.294;2023-02-20T14:16:36;160966.13;;;9.06;53.04
42945;BME280;28584;42.636;23.294;2023-02-20T14:19:19;160963.47;;;9.05;53.62
42945;BME280;28584;42.636;23.294;2023-02-20T14:21:46;160951.47;;;9.01;53.88
42945;BME280;28584;42.636;23.294;2023-02-20T14:24:23;160927.47;;;8.92;53.60
42945;BME280;28584;42.636;23.294;2023-02-20T14:26:49;160910.09;;;8.85;54.09
42945;BME280;28584;42.636;23.294;2023-02-20T14:29:23;160907.44;;;8.84;54.62
42945;BME280;28584;42.636;23.294;2023-02-20T14:31:50;160895.44;;;8.80;54.85
42945;BME280;28584;42.636;23.294;2023-02-20T14:34:32;160856.78;;;8.65;54.88
42945;BME280;28584;42.636;23.294;2023-02-20T14:42:29;160796.75;;;8.43;56.03
42945;BME280;28584;42.636;23.294;2023-02-20T14:45:00;160768.72;;;8.32;56.40
42945;BME280;28584;42.636;23.294;2023-02-20T14:47:27;160791.41;;;8.40;56.35
42945;BME280;28584;42.636;23.294;2023-02-20T14:49:52;160786.03;;;8.38;56.26
42945;BME280;28584;42.636;23.294;2023-02-20T14:52:19;160791.41;;;8.40;56.00
42945;BME280;28584;42.636;23.294;2023-02-20T14:54:56;160794.06;;;8.41;56.12
42945;BME280;28584;42.636;23.294;2023-02-20T14:57:22;160799.41;;;8.43;55.95
42945;BME280;28584;42.636;23.294;2023-02-20T14:59:47;160792.75;;;8.41;56.17